Time;durP1;ratioP1;P1;durP2;ratioP2;P2;SDS_P1;SDS_P2;PMS_P1;PMS_P2;Temp;Humidity;BMP_temperature;BMP_pressure;BME280_temperature;BME280_humidity;BME280_pressure;Samples;Min_cycle;Max_cycle;Signal;HPM_P1;HPM_P2
2022/03/29 00:01:57;;;;;;;12.65;6.40;;;;;;;9.26;72.57;101834.44;5075971;27;96829;-36
2022/03/29 00:04:23;;;;;;;16.08;6.70;;;;;;;9.22;72.99;101821.97;5075818;27;100613;-36
2022/03/29 00:06:49;;;;;;;17.52;7.93;;;;;;;9.27;72.96;101824.50;5094533;27;99183;-36
2022/03/29 00:09:21;;;;;;;18.42;7.68;;;;;;;9.33;71.02;101818.88;5075437;27;96846;-36
2022/03/29 00:11:47;;;;;;;16.30;7.82;;;;;;;9.29;70.74;101812.69;5094759;27;96729;-36
2022/03/29 00:14:12;;;;;;;13.85;7.57;;;;;;;9.29;72.12;101823.50;5075240;27;101437;-36
2022/03/29 00:16:38;;;;;;;13.85;8.07;;;;;;;9.26;71.76;101809.25;5093757;27;110893;-36
2022/03/29 00:19:04;;;;;;;11.00;5.70;;;;;;;9.13;73.30;101798.06;5094318;27;96630;-36
2022/03/29 00:21:29;;;;;;;15.30;8.55;;;;;;;9.17;71.26;101796.97;5094494;27;96728;-36
2022/03/29 00:23:55;;;;;;;13.13;6.38;;;;;;;9.19;72.05;101791.50;5094358;27;97886;-36
2022/03/29 00:26:20;;;;;;;13.68;6.85;;;;;;;9.11;73.33;101784.59;5093340;27;115753;-36
2022/03/29 00:28:45;;;;;;;16.75;7.25;;;;;;;9.21;71.96;101790.50;5094473;27;96703;-36
2022/03/29 00:31:12;;;;;;;16.55;8.23;;;;;;;9.21;71.76;101790.50;5093954;27;121748;-36
2022/03/29 00:33:38;;;;;;;13.65;7.00;;;;;;;9.21;73.79;101790.50;5075335;27;100922;-36
2022/03/29 00:36:04;;;;;;;18.08;8.15;;;;;;;9.23;71.95;101779.63;5093997;27;97808;-36
2022/03/29 00:38:29;;;;;;;14.05;6.93;;;;;;;9.22;71.57;101773.31;5093477;27;96517;-36
2022/03/29 00:40:55;;;;;;;14.35;7.43;;;;;;;9.16;73.48;101770.91;5093997;27;96762;-36
2022/03/29 00:43:21;;;;;;;19.23;8.30;;;;;;;9.19;72.89;101770.75;5093027;27;97861;-36
2022/03/29 00:45:46;;;;;;;16.02;8.30;;;;;;;9.19;72.33;101769.88;5093514;27;98003;-36
2022/03/29 00:48:15;;;;;;;20.50;9.63;;;;;;;9.21;70.64;101762.59;5093881;27;96646;-36
2022/03/29 00:50:41;;;;;;;18.60;7.75;;;;;;;9.19;71.52;101768.06;5093775;27;97637;-36
2022/03/29 00:53:08;;;;;;;20.33;9.20;;;;;;;9.17;72.02;101760.94;5075202;27;101260;-36
2022/03/29 00:55:34;;;;;;;17.08;7.55;;;;;;;9.13;71.69;101760.22;5075497;27;100747;-36
2022/03/29 00:58:02;;;;;;;13.60;7.15;;;;;;;9.17;73.19;101766.34;5093585;27;96623;-36
2022/03/29 01:00:29;;;;;;;16.33;6.32;;;;;;;9.15;73.06;101763.72;5074889;27;96787;-36
2022/03/29 01:02:54;;;;;;;15.48;7.18;;;;;;;9.14;72.65;101770.94;5074526;27;100979;-36
2022/03/29 01:05:20;;;;;;;20.42;8.23;;;;;;;9.13;73.97;101768.31;5092503;27;117824;-36
2022/03/29 01:07:45;;;;;;;16.30;7.75;;;;;;;9.06;74.85;101762.28;5093416;27;96636;-36
2022/03/29 01:10:11;;;;;;;21.30;8.35;;;;;;;9.10;72.76;101768.44;5093185;27;96783;-36
2022/03/29 01:12:37;;;;;;;14.20;7.22;;;;;;;9.13;73.52;101765.63;5074950;27;101069;-36
2022/03/29 01:15:05;;;;;;;14.25;6.82;;;;;;;9.17;73.51;101764.53;5074643;27;100715;-36
2022/03/29 01:17:41;;;;;;;17.33;7.97;;;;;;;9.09;72.76;101747.75;5093435;27;96624;-36
2022/03/29 01:20:24;;;;;;;14.73;6.45;;;;;;;9.09;72.77;101756.75;5075227;27;96590;-36
2022/03/29 01:22:51;;;;;;;17.77;8.65;;;;;;;9.04;73.84;101744.38;5074889;27;100840;-36
2022/03/29 01:25:23;;;;;;;17.98;8.55;;;;;;;9.17;72.89;101753.72;5074279;27;100840;-36
2022/03/29 01:27:49;;;;;;;12.60;6.50;;;;;;;9.13;74.49;101735.88;5074327;27;96769;-37
2022/03/29 01:30:15;;;;;;;19.40;8.18;;;;;;;9.11;73.08;101732.38;5074638;27;96802;-37
2022/03/29 01:32:45;;;;;;;19.27;8.93;;;;;;;9.21;73.74;101740.97;5074634;27;101400;-36
2022/03/29 01:35:12;;;;;;;20.25;6.93;;;;;;;9.12;73.62;101723.31;5074529;27;101161;-36
2022/03/29 01:37:39;;;;;;;18.92;8.18;;;;;;;9.22;74.34;101738.19;5074749;27;96441;-36
2022/03/29 01:40:10;;;;;;;14.45;7.15;;;;;;;9.23;73.57;101739.09;5074578;27;96815;-36
2022/03/29 01:42:36;;;;;;;16.67;9.05;;;;;;;9.27;72.81;101741.59;5074390;27;101311;-37
2022/03/29 01:45:02;;;;;;;19.75;9.10;;;;;;;9.22;72.44;101735.47;5093188;27;99154;-36
2022/03/29 01:47:27;;;;;;;15.60;8.40;;;;;;;9.16;73.04;101715.97;5092972;27;96661;-36
2022/03/29 01:49:52;;;;;;;12.27;7.03;;;;;;;9.22;73.49;101731.91;5093360;27;96725;-36
2022/03/29 01:52:19;;;;;;;16.80;8.82;;;;;;;9.15;71.99;101725.88;5091467;27;126951;-36
2022/03/29 01:54:45;;;;;;;14.77;6.88;;;;;;;9.12;73.43;101726.00;5096139;27;97915;-36
2022/03/29 01:57:11;;;;;;;15.90;8.73;;;;;;;9.13;72.82;101727.78;5096740;27;96535;-36
2022/03/29 02:02:21;;;;;;;15.10;7.25;;;;;;;9.10;73.31;101717.06;5096731;27;97030;-36
2022/03/29 02:04:55;;;;;;;17.67;8.15;;;;;;;9.00;73.68;101707.59;5095440;27;120915;-36
2022/03/29 02:07:23;;;;;;;11.07;6.20;;;;;;;9.06;73.58;101712.75;5095685;27;121269;-36
2022/03/29 02:09:48;;;;;;;11.38;5.63;;;;;;;8.97;74.93;101711.31;5096371;27;96991;-36
2022/03/29 02:12:13;;;;;;;17.40;7.63;;;;;;;8.86;75.64;101697.34;5096423;27;98330;-36
2022/03/29 02:14:39;;;;;;;13.90;6.63;;;;;;;8.80;73.61;101697.63;5096393;27;97973;-36
2022/03/29 02:17:05;;;;;;;13.27;6.57;;;;;;;8.74;76.25;101687.91;5077148;27;97034;-36
2022/03/29 02:19:31;;;;;;;17.42;6.82;;;;;;;8.79;74.43;101694.00;5077676;27;96755;-36
2022/03/29 02:21:56;;;;;;;18.40;8.20;;;;;;;8.73;73.54;101683.47;5096151;27;97946;-36
2022/03/29 02:24:21;;;;;;;18.65;8.38;;;;;;;8.66;74.48;101681.97;5095413;27;119020;-36
2022/03/29 02:26:47;;;;;;;14.30;8.05;;;;;;;8.69;74.59;101684.53;5096159;27;96560;-36
2022/03/29 02:29:12;;;;;;;13.52;7.47;;;;;;;8.74;75.21;101689.75;5096351;27;96788;-36
2022/03/29 02:31:37;;;;;;;14.05;7.35;;;;;;;8.74;74.19;101668.13;5096181;27;97906;-36
2022/03/29 02:34:03;;;;;;;16.65;7.78;;;;;;;8.78;75.20;101675.19;5095147;27;126550;-36
2022/03/29 02:36:28;;;;;;;19.75;8.68;;;;;;;8.72;74.02;101668.19;5096044;27;96630;-37
2022/03/29 02:38:53;;;;;;;12.98;6.68;;;;;;;8.71;76.63;101666.44;5095189;27;121919;-36
2022/03/29 02:41:19;;;;;;;16.65;7.75;;;;;;;8.65;74.48;101661.28;5095434;27;97974;-36
2022/03/29 02:43:44;;;;;;;15.55;7.07;;;;;;;8.71;76.18;101670.03;5094965;27;126491;-36
2022/03/29 02:46:09;;;;;;;13.32;6.70;;;;;;;8.61;75.22;101659.66;5094990;27;117857;-36
2022/03/29 02:48:34;;;;;;;11.05;5.90;;;;;;;8.63;74.86;101666.75;5095487;27;96723;-36
2022/03/29 02:51:00;;;;;;;16.13;6.68;;;;;;;8.55;75.90;101652.66;5095888;27;97381;-36
2022/03/29 02:53:25;;;;;;;16.00;7.60;;;;;;;8.57;76.03;101649.91;5095765;27;97790;-36
2022/03/29 02:55:51;;;;;;;16.48;7.80;;;;;;;8.62;75.19;101647.91;5095174;27;115013;-36
2022/03/29 02:58:16;;;;;;;14.95;7.95;;;;;;;8.68;74.94;101648.53;5095441;27;115172;-36
2022/03/29 03:00:41;;;;;;;13.60;7.10;;;;;;;8.71;74.54;101650.25;5094618;27;126650;-36
2022/03/29 03:03:06;;;;;;;13.52;6.50;;;;;;;8.59;75.25;101639.94;5095558;27;97879;-36
2022/03/29 03:05:32;;;;;;;16.95;8.85;;;;;;;8.52;74.40;101631.19;5092860;27;123462;-36
2022/03/29 03:07:58;;;;;;;17.38;7.68;;;;;;;8.55;75.04;101638.28;5095357;27;96883;-36
2022/03/29 03:10:25;;;;;;;21.92;8.40;;;;;;;8.51;74.05;101626.75;5094749;27;99354;-36
2022/03/29 03:12:50;;;;;;;16.42;8.25;;;;;;;8.51;74.68;101629.47;5076581;27;101312;-37
2022/03/29 03:15:18;;;;;;;15.30;6.18;;;;;;;8.36;75.73;101619.22;5095614;27;96462;-36
2022/03/29 03:17:44;;;;;;;16.77;6.55;;;;;;;8.44;74.74;101625.25;5076806;27;96826;-36
2022/03/29 03:20:11;;;;;;;18.38;7.05;;;;;;;8.50;74.73;101627.69;5095159;27;97368;-36
2022/03/29 03:22:37;;;;;;;19.13;8.07;;;;;;;8.48;74.97;101619.63;5076910;27;100982;-37
2022/03/29 03:25:03;;;;;;;18.92;8.00;;;;;;;8.45;74.46;101617.06;5076602;27;96555;-36
2022/03/29 03:27:29;;;;;;;15.55;8.90;;;;;;;8.38;74.59;101609.25;5094877;27;96830;-36
2022/03/29 03:29:54;;;;;;;14.23;6.28;;;;;;;8.42;75.11;101613.63;5075885;27;100758;-36
2022/03/29 03:32:19;;;;;;;23.67;9.07;;;;;;;8.45;75.13;101611.66;5095220;27;97788;-36
2022/03/29 03:34:45;;;;;;;15.93;6.32;;;;;;;8.36;74.46;101590.41;5094309;27;118378;-36
2022/03/29 03:37:10;;;;;;;19.38;7.25;;;;;;;8.35;75.64;101588.66;5094711;27;111304;-36
2022/03/29 03:39:39;;;;;;;14.00;6.90;;;;;;;8.35;75.07;101590.47;5094917;27;98045;-36
2022/03/29 03:42:06;;;;;;;11.30;6.70;;;;;;;8.30;74.42;101585.28;5094655;27;99125;-36
2022/03/29 03:44:32;;;;;;;13.82;5.60;;;;;;;8.30;75.90;101590.66;5076317;27;96571;-36
2022/03/29 03:46:57;;;;;;;14.85;6.82;;;;;;;8.32;75.94;101588.78;5094917;27;96839;-36
2022/03/29 03:49:23;;;;;;;14.80;7.30;;;;;;;8.26;75.71;101580.94;5094640;27;99614;-36
2022/03/29 03:51:48;;;;;;;13.32;6.60;;;;;;;8.27;77.53;101590.78;5094738;27;97431;-36
2022/03/29 03:54:14;;;;;;;12.45;6.55;;;;;;;8.14;77.09;101581.41;5094448;27;96439;-36
2022/03/29 03:56:39;;;;;;;16.85;8.52;;;;;;;8.07;76.54;101576.25;5094547;27;96759;-36
2022/03/29 03:59:04;;;;;;;15.55;6.30;;;;;;;8.05;76.50;101577.25;5094693;27;97838;-36
2022/03/29 04:01:30;;;;;;;9.45;5.38;;;;;;;7.94;76.63;101566.91;5094858;27;97287;-36
2022/03/29 04:03:55;;;;;;;15.27;7.10;;;;;;;8.01;77.33;101571.13;5094204;27;102338;-36
2022/03/29 04:06:21;;;;;;;11.90;6.03;;;;;;;7.90;76.40;101557.16;5094378;27;105695;-36
2022/03/29 04:08:46;;;;;;;9.20;4.68;;;;;;;7.85;77.51;101562.72;5094102;27;99379;-36
2022/03/29 04:11:12;;;;;;;11.13;5.07;;;;;;;7.88;76.77;101565.31;5094529;27;98852;-36
2022/03/29 04:13:37;;;;;;;15.25;6.50;;;;;;;7.91;76.48;101567.00;5094993;27;96451;-36
2022/03/29 04:16:03;;;;;;;15.57;8.40;;;;;;;7.96;77.04;101565.03;5094316;27;96774;-36
2022/03/29 04:18:28;;;;;;;17.40;8.35;;;;;;;7.89;77.24;101550.03;5093688;27;99703;-36
2022/03/29 04:20:53;;;;;;;18.98;7.72;;;;;;;7.94;75.56;101555.25;5094474;27;97854;-36
2022/03/29 04:23:20;;;;;;;13.05;6.22;;;;;;;7.88;75.77;101553.63;5094198;27;96535;-36
2022/03/29 04:25:45;;;;;;;12.65;6.40;;;;;;;7.87;76.32;101565.38;5075661;27;96781;-36
2022/03/29 04:28:10;;;;;;;17.00;8.40;;;;;;;7.84;76.70;101562.78;5093910;27;116077;-36
2022/03/29 04:30:35;;;;;;;15.57;7.47;;;;;;;7.71;76.24;101550.72;5093230;27;114611;-36
2022/03/29 04:33:01;;;;;;;15.38;7.40;;;;;;;7.67;75.89;101544.56;5094235;27;96481;-36
2022/03/29 04:35:27;;;;;;;12.82;7.03;;;;;;;7.73;75.96;101554.25;5094343;27;96751;-36
2022/03/29 04:37:53;;;;;;;13.27;6.13;;;;;;;7.68;77.74;101545.47;5094033;27;97795;-36
2022/03/29 04:40:19;;;;;;;16.15;7.72;;;;;;;7.64;77.33;101540.16;5093620;27;99175;-36
2022/03/29 04:42:46;;;;;;;20.40;8.75;;;;;;;7.70;76.46;101555.25;5093910;27;96445;-36
2022/03/29 04:45:13;;;;;;;18.38;7.95;;;;;;;7.72;76.54;101544.38;5075251;27;96785;-36
2022/03/29 04:47:42;;;;;;;16.33;6.85;;;;;;;7.69;78.40;101536.41;5074957;27;101091;-36
2022/03/29 04:50:13;;;;;;;15.23;6.85;;;;;;;7.73;77.95;101552.44;5075072;27;100821;-36
2022/03/29 04:52:44;;;;;;;14.60;7.80;;;;;;;7.68;76.44;101531.97;5075257;27;96627;-36
2022/03/29 04:55:13;;;;;;;17.50;7.07;;;;;;;7.72;77.70;101530.91;5093651;27;96623;-37
2022/03/29 04:57:41;;;;;;;13.35;6.45;;;;;;;7.72;77.31;101530.91;5074990;27;100891;-36
2022/03/29 05:00:07;;;;;;;17.42;6.90;;;;;;;7.79;75.97;101537.81;5093938;27;97970;-36
2022/03/29 05:02:34;;;;;;;19.23;7.70;;;;;;;7.79;76.62;101535.13;5075201;27;97370;-36
2022/03/29 05:05:01;;;;;;;17.80;8.88;;;;;;;7.77;76.32;101537.00;5074850;27;96965;-37
2022/03/29 05:07:28;;;;;;;17.83;7.57;;;;;;;7.69;76.91;101522.94;5092904;27;97992;-36
2022/03/29 05:09:54;;;;;;;15.07;7.40;;;;;;;7.75;77.96;101541.59;5092942;27;99245;-36
2022/03/29 05:12:19;;;;;;;11.15;5.78;;;;;;;7.76;77.27;101535.25;5093028;27;96566;-36
2022/03/29 05:14:44;;;;;;;19.92;7.25;;;;;;;7.76;77.44;101527.16;5093498;27;97767;-36
2022/03/29 05:17:09;;;;;;;16.63;6.35;;;;;;;7.75;77.59;101528.09;5093136;27;99369;-36
2022/03/29 05:19:35;;;;;;;14.73;7.28;;;;;;;7.77;76.86;101523.50;5092517;27;126277;-36
2022/03/29 05:22:01;;;;;;;13.10;7.10;;;;;;;7.81;76.79;101534.13;5092774;27;116434;-36
2022/03/29 05:24:26;;;;;;;11.48;6.20;;;;;;;7.82;77.91;101530.50;5094126;27;96755;-36
2022/03/29 05:26:52;;;;;;;13.88;5.10;;;;;;;7.80;77.22;101536.88;5092716;27;99132;-36
2022/03/29 05:29:20;;;;;;;19.08;7.60;;;;;;;7.76;78.12;101530.72;5098904;27;97771;-36
2022/03/29 05:31:46;;;;;;;10.73;5.75;;;;;;;7.69;76.54;101533.72;5081143;27;97554;-36
2022/03/29 05:34:13;;;;;;;14.82;6.75;;;;;;;7.69;76.46;101544.50;5100178;27;96750;-36
2022/03/29 05:36:43;;;;;;;13.65;6.53;;;;;;;7.65;77.67;101541.94;5099088;27;97456;-37
2022/03/29 05:39:09;;;;;;;15.18;6.70;;;;;;;7.57;76.91;101537.75;5079679;27;100916;-37
2022/03/29 05:41:34;;;;;;;18.15;8.50;;;;;;;7.55;76.07;101535.13;5098817;27;96629;-36
2022/03/29 05:43:59;;;;;;;18.63;7.50;;;;;;;7.58;77.92;101545.81;5098827;27;120580;-36
2022/03/29 05:49:08;;;;;;;17.35;7.40;;;;;;;7.58;77.58;101536.81;5100309;27;97020;-37
2022/03/29 05:51:34;;;;;;;10.10;5.22;;;;;;;7.66;77.36;101543.69;5098418;27;123074;-37
2022/03/29 05:54:04;;;;;;;21.52;7.63;;;;;;;7.64;76.50;101539.28;5099022;27;118933;-36
2022/03/29 05:56:30;;;;;;;14.52;7.10;;;;;;;7.65;77.60;101541.94;5099550;27;97994;-36
2022/03/29 05:58:56;;;;;;;20.52;7.28;;;;;;;7.77;78.17;101545.97;5099569;27;99218;-37
2022/03/29 06:01:21;;;;;;;14.32;6.10;;;;;;;7.68;77.66;101546.34;5081253;27;96689;-36
2022/03/29 06:03:46;;;;;;;12.73;6.10;;;;;;;7.77;78.42;101551.38;5099949;27;96637;-37
2022/03/29 06:06:13;;;;;;;13.52;5.53;;;;;;;7.81;76.34;101544.91;5099655;27;97756;-36
2022/03/29 06:08:39;;;;;;;17.02;7.85;;;;;;;7.78;76.26;101534.25;5080482;27;100809;-36
2022/03/29 06:11:04;;;;;;;18.48;6.93;;;;;;;7.70;76.92;101533.69;5099882;27;96448;-36
2022/03/29 06:13:30;;;;;;;12.57;6.75;;;;;;;7.74;77.35;101539.81;5100102;27;96756;-36
2022/03/29 06:15:56;;;;;;;15.90;6.22;;;;;;;7.68;77.17;101534.69;5081267;27;99278;-36
2022/03/29 06:18:22;;;;;;;13.15;6.30;;;;;;;7.71;76.92;101537.25;5099653;27;97786;-37
2022/03/29 06:20:50;;;;;;;16.27;8.05;;;;;;;7.69;77.71;101541.81;5063339;27;97282;-37
2022/03/29 06:23:18;;;;;;;22.30;8.23;;;;;;;7.72;76.58;101529.06;5081360;27;96799;-36
2022/03/29 06:25:43;;;;;;;15.00;7.60;;;;;;;7.70;77.02;101528.28;5080593;27;101310;-36
2022/03/29 06:28:10;;;;;;;16.15;8.63;;;;;;;7.66;77.12;101515.84;5098816;27;119721;-36
2022/03/29 06:30:38;;;;;;;18.52;8.40;;;;;;;7.73;76.69;101525.47;5080817;27;97212;-37
2022/03/29 06:33:04;;;;;;;15.80;6.13;;;;;;;7.65;77.94;101519.47;5098584;27;117933;-36
2022/03/29 06:35:31;;;;;;;15.73;7.20;;;;;;;7.66;76.83;101532.03;5099108;27;99294;-36
2022/03/29 06:37:58;;;;;;;16.20;8.23;;;;;;;7.62;76.83;101524.97;5099526;27;97828;-36
2022/03/29 06:40:26;;;;;;;16.63;7.53;;;;;;;7.62;76.58;101519.59;5077104;27;96566;-36
2022/03/29 06:42:55;;;;;;;13.65;7.22;;;;;;;7.56;78.66;101519.84;5096059;27;96704;-37
2022/03/29 06:45:27;;;;;;;14.07;6.30;;;;;;;7.62;77.75;101536.63;5076705;27;101253;-36
2022/03/29 06:48:12;;;;;;;14.85;6.00;;;;;;;7.59;78.18;101534.06;5095581;27;97143;-36
2022/03/29 06:50:37;;;;;;;15.68;7.30;;;;;;;7.50;77.49;101526.31;5077084;27;96610;-37
2022/03/29 06:53:04;;;;;;;19.05;7.95;;;;;;;7.49;78.27;101526.41;5096017;27;96755;-36
2022/03/29 06:55:29;;;;;;;14.35;6.65;;;;;;;7.58;77.30;101534.13;5095643;27;97915;-36
2022/03/29 06:57:55;;;;;;;14.32;5.68;;;;;;;7.57;78.07;101535.94;5094629;27;127034;-36
2022/03/29 07:00:21;;;;;;;12.63;5.55;;;;;;;7.55;77.68;101527.03;5095703;27;96516;-36
2022/03/29 07:02:48;;;;;;;16.45;5.50;;;;;;;7.61;78.16;101540.28;5095759;27;96477;-36
2022/03/29 07:05:14;;;;;;;11.55;5.63;;;;;;;7.61;76.80;101525.94;5095238;27;97996;-36
2022/03/29 07:07:40;;;;;;;17.75;5.63;;;;;;;7.62;77.94;101527.69;5076588;27;101094;-36
2022/03/29 07:12:55;;;;;;;12.77;6.53;;;;;;;7.70;77.93;101536.38;5095970;27;96434;-36
2022/03/29 07:15:22;;;;;;;8.43;5.22;;;;;;;7.70;77.88;101532.78;5076392;27;100815;-36
2022/03/29 07:17:48;;;;;;;10.18;4.82;;;;;;;7.71;78.02;101529.16;5076816;27;100867;-36
2022/03/29 07:20:19;;;;;;;20.67;9.35;;;;;;;7.65;76.57;101530.25;5095535;27;96713;-36
2022/03/29 07:22:45;;;;;;;18.05;6.57;;;;;;;7.63;76.96;101524.06;5095278;27;96559;-36
2022/03/29 07:25:11;;;;;;;19.95;7.28;;;;;;;7.68;76.67;101529.28;5076414;27;100686;-36
2022/03/29 07:27:37;;;;;;;18.48;7.07;;;;;;;7.73;76.73;101532.69;5076571;27;99848;-36
2022/03/29 07:30:04;;;;;;;20.48;7.93;;;;;;;7.68;77.76;101529.28;5076474;27;96667;-36
2022/03/29 07:32:30;;;;;;;19.10;6.82;;;;;;;7.72;77.25;101531.78;5095064;27;96849;-36
2022/03/29 07:34:56;;;;;;;14.50;7.97;;;;;;;7.72;77.17;101536.28;5094529;27;98136;-36
2022/03/29 07:37:22;;;;;;;18.95;7.95;;;;;;;7.68;76.45;101527.47;5076230;27;100809;-36
2022/03/29 07:39:48;;;;;;;18.35;9.07;;;;;;;7.63;78.73;101524.94;5094909;27;96507;-36
2022/03/29 07:42:14;;;;;;;18.63;8.68;;;;;;;7.68;77.06;101531.97;5076301;27;96824;-36
2022/03/29 07:44:39;;;;;;;14.50;6.57;;;;;;;7.68;77.26;101535.53;5094610;27;97412;-36
2022/03/29 07:47:05;;;;;;;17.15;8.60;;;;;;;7.63;76.96;101527.63;5094677;27;97523;-36
2022/03/29 07:49:30;;;;;;;12.93;6.05;;;;;;;7.77;77.19;101537.00;5095087;27;96628;-36
2022/03/29 07:51:56;;;;;;;13.38;6.18;;;;;;;7.73;77.54;101530.84;5093898;27;122261;-36
2022/03/29 07:54:21;;;;;;;17.48;6.50;;;;;;;7.72;77.19;101531.78;5094586;27;98953;-36
2022/03/29 07:56:47;;;;;;;23.58;7.95;;;;;;;7.84;77.17;101541.19;5095066;27;97327;-36
2022/03/29 07:59:13;;;;;;;16.67;7.15;;;;;;;7.81;77.23;101539.50;5075462;27;96682;-37
2022/03/29 08:01:38;;;;;;;18.65;8.05;;;;;;;7.84;77.78;101538.50;5076169;27;96853;-36
2022/03/29 08:04:04;;;;;;;15.05;7.32;;;;;;;7.84;78.83;101536.72;5093625;27;118513;-36
2022/03/29 08:06:30;;;;;;;12.45;5.97;;;;;;;7.90;77.92;101534.72;5094589;27;97839;-36
2022/03/29 08:08:56;;;;;;;17.45;6.35;;;;;;;7.85;77.60;101527.66;5075321;27;96801;-36
2022/03/29 08:11:22;;;;;;;13.07;5.57;;;;;;;7.88;77.94;101530.25;5094469;27;96807;-36
2022/03/29 08:13:48;;;;;;;16.17;7.68;;;;;;;7.85;76.34;101529.50;5075792;27;100772;-36
2022/03/29 08:16:14;;;;;;;19.08;7.47;;;;;;;7.84;77.36;101525.94;5075993;27;101012;-36
2022/03/29 08:18:40;;;;;;;14.63;5.90;;;;;;;7.80;78.52;101524.28;5075756;27;96605;-36
2022/03/29 08:21:47;;;;;;;14.98;6.22;;;;;;;7.80;78.67;101526.97;5094663;27;96783;-36
2022/03/29 08:23:52;;;;;;;14.48;6.28;;;;;;;7.82;77.37;101533.19;5093516;27;98794;-36
2022/03/29 08:26:17;;;;;;;16.98;8.52;;;;;;;7.82;77.49;101532.31;5075269;27;100746;-36
2022/03/29 08:28:43;;;;;;;17.75;6.85;;;;;;;7.73;77.12;101521.88;5094058;27;96703;-36
2022/03/29 08:31:08;;;;;;;17.80;7.78;;;;;;;7.80;76.80;101534.19;5094375;27;96713;-36
2022/03/29 08:33:34;;;;;;;11.25;5.05;;;;;;;7.79;77.70;101518.94;5093175;27;120690;-36
2022/03/29 08:35:59;;;;;;;16.50;7.63;;;;;;;7.78;76.64;101520.75;5093162;27;124525;-36
2022/03/29 08:38:26;;;;;;;16.20;6.78;;;;;;;7.86;77.15;101513.25;5094143;27;96453;-36
2022/03/29 08:40:56;;;;;;;18.58;7.05;;;;;;;7.92;77.59;101517.53;5094443;27;96851;-37
2022/03/29 08:43:26;;;;;;;15.82;6.00;;;;;;;7.92;76.87;101532.84;5093732;27;97909;-36
2022/03/29 08:45:51;;;;;;;18.85;7.90;;;;;;;7.94;75.92;101528.25;5075257;27;101751;-36
2022/03/29 08:48:21;;;;;;;15.40;5.07;;;;;;;7.95;76.27;101533.56;5093305;27;96524;-36
2022/03/29 08:50:47;;;;;;;16.60;7.90;;;;;;;7.96;76.33;101529.97;5075289;27;96813;-36
2022/03/29 08:53:13;;;;;;;14.50;7.00;;;;;;;7.92;76.52;101512.13;5074940;27;100934;-36
2022/03/29 08:55:42;;;;;;;19.88;7.72;;;;;;;7.97;76.92;101517.34;5093689;27;97807;-36
2022/03/29 08:58:08;;;;;;;15.05;6.93;;;;;;;8.01;76.67;101522.56;5093883;27;96722;-36
2022/03/29 09:00:35;;;;;;;14.85;5.72;;;;;;;8.05;76.54;101524.16;5093953;27;96720;-36
2022/03/29 09:03:00;;;;;;;13.38;6.55;;;;;;;8.06;75.87;101517.84;5092787;27;97974;-36
2022/03/29 09:05:30;;;;;;;26.58;7.35;;;;;;;8.06;75.98;101530.47;5093893;27;97793;-36
2022/03/29 09:08:03;;;;;;;16.50;7.75;;;;;;;8.03;75.46;101530.56;5074847;27;96582;-36
2022/03/29 09:10:45;;;;;;;20.05;6.43;;;;;;;8.03;76.86;101528.78;5068823;27;96803;-36
2022/03/29 09:13:15;;;;;;;18.15;7.65;;;;;;;8.06;75.78;101528.63;5070969;27;100949;-36
2022/03/29 09:15:41;;;;;;;13.68;6.18;;;;;;;8.05;77.01;101518.78;5071494;27;101041;-36
2022/03/29 09:18:08;;;;;;;14.70;5.45;;;;;;;8.03;76.27;101523.38;5072686;27;96655;-36
2022/03/29 09:20:33;;;;;;;12.07;5.22;;;;;;;8.07;75.65;101526.81;5071465;27;96607;-36
2022/03/29 09:22:58;;;;;;;16.23;6.70;;;;;;;8.06;76.61;101519.69;5071980;27;126848;-36
2022/03/29 09:25:34;;;;;;;21.08;7.82;;;;;;;8.11;75.91;101516.78;5072105;27;118390;-36
2022/03/29 09:28:01;;;;;;;11.98;5.22;;;;;;;8.00;76.32;101510.00;5071407;27;96578;-36
2022/03/29 09:30:38;;;;;;;11.20;4.93;;;;;;;8.02;76.95;101505.41;5073126;27;97024;-36
2022/03/29 09:33:15;;;;;;;14.88;6.50;;;;;;;8.06;77.63;101511.59;5071141;27;100763;-36
2022/03/29 09:35:57;;;;;;;10.25;4.47;;;;;;;8.09;76.17;101520.41;5071165;27;101228;-36
2022/03/29 09:38:36;;;;;;;18.52;7.03;;;;;;;8.16;75.54;101517.47;5072259;27;96540;-36
2022/03/29 09:41:04;;;;;;;18.25;7.50;;;;;;;8.19;75.56;101511.94;5071100;27;96682;-36
2022/03/29 09:43:33;;;;;;;12.93;6.25;;;;;;;8.20;75.84;101505.59;5071185;27;97880;-36
2022/03/29 09:46:01;;;;;;;11.32;4.93;;;;;;;8.13;77.20;101512.19;5070900;27;98912;-36
2022/03/29 09:48:38;;;;;;;10.75;5.55;;;;;;;8.03;77.49;101509.88;5054254;27;96739;-36
2022/03/29 09:51:18;;;;;;;21.02;5.80;;;;;;;8.18;76.74;101523.69;5072508;27;96691;-37
2022/03/29 09:53:52;;;;;;;14.98;7.03;;;;;;;8.27;75.70;101515.19;5070706;27;100789;-36
2022/03/29 09:56:24;;;;;;;14.55;5.65;;;;;;;8.29;76.35;101510.63;5072718;27;97870;-36
2022/03/29 09:59:14;;;;;;;9.88;4.85;;;;;;;8.28;76.15;101515.16;5071174;27;96614;-36
2022/03/29 10:01:57;;;;;;;11.90;4.50;;;;;;;8.25;76.70;101509.00;5072513;27;96613;-36
2022/03/29 10:04:24;;;;;;;21.00;6.78;;;;;;;8.19;76.43;101503.84;5071532;27;99547;-36
2022/03/29 10:06:52;;;;;;;22.73;8.52;;;;;;;8.22;75.33;101506.41;5072350;27;97279;-36
2022/03/29 10:09:30;;;;;;;13.80;6.43;;;;;;;8.24;75.57;101504.53;5070542;27;96682;-36
2022/03/29 10:11:59;;;;;;;13.15;6.13;;;;;;;8.16;76.04;101483.28;5072278;27;96709;-36
2022/03/29 10:14:26;;;;;;;22.60;8.90;;;;;;;8.21;75.70;101475.84;5073054;27;99531;-36
2022/03/29 10:16:56;;;;;;;12.73;6.47;;;;;;;8.29;75.80;101484.53;5075629;27;99302;-36
2022/03/29 10:19:21;;;;;;;9.43;4.35;;;;;;;8.28;76.55;101484.59;5057202;27;96676;-36
2022/03/29 10:21:48;;;;;;;17.17;6.68;;;;;;;8.33;75.82;101479.88;5074625;27;96943;-36
2022/03/29 10:24:14;;;;;;;12.73;5.45;;;;;;;8.28;77.06;101474.66;5074070;27;101732;-36
2022/03/29 10:26:42;;;;;;;19.55;7.40;;;;;;;8.35;76.32;101486.09;5073961;27;100759;-36
2022/03/29 10:29:09;;;;;;;19.85;7.85;;;;;;;8.32;75.94;101475.44;5056545;27;97333;-36
2022/03/29 10:31:47;;;;;;;17.02;7.38;;;;;;;8.31;76.53;101473.66;5075423;27;96778;-36
2022/03/29 10:34:25;;;;;;;15.20;5.78;;;;;;;8.31;76.95;101470.94;5074002;27;100909;-36
2022/03/29 10:37:10;;;;;;;11.07;5.50;;;;;;;8.42;76.95;101484.03;5074099;27;100855;-36
2022/03/29 10:39:59;;;;;;;10.50;4.93;;;;;;;8.46;76.57;101488.34;5073729;27;96666;-36
2022/03/29 10:42:32;;;;;;;17.25;7.25;;;;;;;8.55;75.32;101485.25;5057138;27;96707;-36
2022/03/29 10:44:57;;;;;;;18.02;6.90;;;;;;;8.65;74.81;101491.13;5075288;27;98982;-36
2022/03/29 10:47:27;;;;;;;16.43;6.77;;;;;;;8.72;74.81;101476.41;5075054;27;109588;-36
2022/03/29 10:49:52;;;;;;;17.85;8.00;;;;;;;8.73;74.99;101472.78;5074951;27;96746;-36
2022/03/29 10:52:20;;;;;;;15.63;5.93;;;;;;;8.72;75.28;101471.03;5075258;27;96749;-36
2022/03/29 10:54:47;;;;;;;18.77;6.90;;;;;;;8.67;74.99;101459.53;5074387;27;108422;-36
2022/03/29 10:57:28;;;;;;;15.95;6.55;;;;;;;8.68;75.21;101458.63;5073588;27;100975;-36
2022/03/29 11:00:06;;;;;;;22.45;8.27;;;;;;;8.76;75.94;101475.34;5075482;27;96603;-36
2022/03/29 11:02:32;;;;;;;13.35;5.65;;;;;;;8.71;75.97;101453.06;5074927;27;101987;-36
2022/03/29 11:05:10;;;;;;;19.75;8.15;;;;;;;8.87;74.74;101467.66;5074981;27;97824;-36
2022/03/29 11:07:59;;;;;;;24.42;9.43;;;;;;;8.95;74.88;101461.91;5073306;27;100053;-36
2022/03/29 11:10:41;;;;;;;19.90;8.00;;;;;;;9.00;74.74;101464.41;5087767;27;96752;-36
2022/03/29 11:13:27;;;;;;;19.05;8.48;;;;;;;9.02;75.26;101462.50;5077347;27;96686;-36
2022/03/29 11:15:53;;;;;;;23.23;7.75;;;;;;;9.09;74.04;101445.06;5095452;27;97964;-36
2022/03/29 11:18:30;;;;;;;20.38;7.25;;;;;;;9.25;74.05;101456.06;5076658;27;101378;-36
2022/03/29 11:21:03;;;;;;;21.15;7.10;;;;;;;9.32;73.57;101452.13;5095077;27;96611;-36
2022/03/29 11:23:37;;;;;;;20.73;7.85;;;;;;;9.36;73.27;101435.66;5095683;27;96600;-36
2022/03/29 11:26:10;;;;;;;18.13;8.52;;;;;;;9.41;73.47;101423.75;5075839;27;98986;-36
2022/03/29 11:28:36;;;;;;;21.80;8.80;;;;;;;9.45;73.00;101433.50;5076433;27;100906;-36
2022/03/29 11:31:01;;;;;;;13.50;5.95;;;;;;;9.38;73.65;101424.78;5095417;27;96567;-36
2022/03/29 11:33:31;;;;;;;18.90;9.60;;;;;;;9.40;73.01;101424.72;5095154;27;96557;-36